sensor_id;sensor_type;location;lat;lon;timestamp;P1;durP1;ratioP1;P2;durP2;ratioP2
4448;SDS011;2237;51.870;6.160;2023-09-12T00:00:04;19.67;;;10.45;;
4448;SDS011;2237;51.870;6.160;2023-09-12T00:02:31;18.45;;;10.85;;
4448;SDS011;2237;51.870;6.160;2023-09-12T00:04:58;18.98;;;11.32;;
4448;SDS011;2237;51.870;6.160;2023-09-12T00:07:24;23.85;;;12.63;;
4448;SDS011;2237;51.870;6.160;2023-09-12T00:09:51;24.42;;;13.23;;
4448;SDS011;2237;51.870;6.160;2023-09-12T00:12:17;20.23;;;12.55;;
4448;SDS011;2237;51.870;6.160;2023-09-12T00:14:49;22.88;;;12.32;;
4448;SDS011;2237;51.870;6.160;2023-09-12T00:17:15;23.40;;;12.55;;
4448;SDS011;2237;51.870;6.160;2023-09-12T00:19:42;26.65;;;13.45;;
4448;SDS011;2237;51.870;6.160;2023-09-12T00:22:09;22.75;;;12.45;;
4448;SDS011;2237;51.870;6.160;2023-09-12T00:24:35;22.70;;;12.55;;
4448;SDS011;2237;51.870;6.160;2023-09-12T00:27:02;22.38;;;13.38;;
4448;SDS011;2237;51.870;6.160;2023-09-12T00:29:31;25.85;;;13.05;;
4448;SDS011;2237;51.870;6.160;2023-09-12T00:31:57;21.73;;;13.30;;
4448;SDS011;2237;51.870;6.160;2023-09-12T00:34:24;20.92;;;12.00;;
4448;SDS011;2237;51.870;6.160;2023-09-12T00:36:50;22.77;;;12.30;;
4448;SDS011;2237;51.870;6.160;2023-09-12T00:39:16;21.02;;;11.52;;
4448;SDS011;2237;51.870;6.160;2023-09-12T00:41:43;25.13;;;11.98;;
4448;SDS011;2237;51.870;6.160;2023-09-12T00:44:10;21.30;;;12.15;;
4448;SDS011;2237;51.870;6.160;2023-09-12T00:46:36;24.75;;;12.60;;
4448;SDS011;2237;51.870;6.160;2023-09-12T00:49:04;22.65;;;12.93;;
4448;SDS011;2237;51.870;6.160;2023-09-12T00:51:32;22.20;;;13.25;;
4448;SDS011;2237;51.870;6.160;2023-09-12T00:54:00;25.02;;;12.75;;
4448;SDS011;2237;51.870;6.160;2023-09-12T00:56:27;23.08;;;12.38;;
4448;SDS011;2237;51.870;6.160;2023-09-12T00:58:53;22.95;;;12.13;;
4448;SDS011;2237;51.870;6.160;2023-09-12T01:01:20;22.42;;;13.88;;
4448;SDS011;2237;51.870;6.160;2023-09-12T01:03:47;23.52;;;13.55;;
4448;SDS011;2237;51.870;6.160;2023-09-12T01:06:14;24.27;;;13.40;;
4448;SDS011;2237;51.870;6.160;2023-09-12T01:08:47;24.83;;;13.60;;
4448;SDS011;2237;51.870;6.160;2023-09-12T01:11:14;24.17;;;13.95;;
4448;SDS011;2237;51.870;6.160;2023-09-12T01:13:41;25.08;;;13.02;;
4448;SDS011;2237;51.870;6.160;2023-09-12T01:16:07;23.95;;;13.38;;
4448;SDS011;2237;51.870;6.160;2023-09-12T01:18:34;24.83;;;12.77;;
4448;SDS011;2237;51.870;6.160;2023-09-12T01:26:29;27.23;;;12.98;;
4448;SDS011;2237;51.870;6.160;2023-09-12T01:29:07;24.05;;;13.27;;
4448;SDS011;2237;51.870;6.160;2023-09-12T01:31:36;24.30;;;12.85;;
4448;SDS011;2237;51.870;6.160;2023-09-12T01:34:10;19.48;;;11.95;;
4448;SDS011;2237;51.870;6.160;2023-09-12T01:36:37;21.77;;;13.00;;
4448;SDS011;2237;51.870;6.160;2023-09-12T01:39:04;20.60;;;11.98;;
4448;SDS011;2237;51.870;6.160;2023-09-12T01:41:32;19.65;;;11.95;;
4448;SDS011;2237;51.870;6.160;2023-09-12T01:44:01;24.50;;;12.30;;
4448;SDS011;2237;51.870;6.160;2023-09-12T01:46:29;26.30;;;13.98;;
4448;SDS011;2237;51.870;6.160;2023-09-12T01:48:57;24.38;;;13.27;;
4448;SDS011;2237;51.870;6.160;2023-09-12T01:51:25;23.50;;;12.57;;
4448;SDS011;2237;51.870;6.160;2023-09-12T01:53:53;24.80;;;13.82;;
4448;SDS011;2237;51.870;6.160;2023-09-12T01:56:21;23.20;;;12.63;;
4448;SDS011;2237;51.870;6.160;2023-09-12T01:58:48;22.10;;;12.60;;
4448;SDS011;2237;51.870;6.160;2023-09-12T02:01:14;22.67;;;12.75;;
4448;SDS011;2237;51.870;6.160;2023-09-12T02:03:41;22.52;;;13.02;;
4448;SDS011;2237;51.870;6.160;2023-09-12T02:06:07;24.88;;;13.00;;
4448;SDS011;2237;51.870;6.160;2023-09-12T02:08:34;22.35;;;12.82;;
4448;SDS011;2237;51.870;6.160;2023-09-12T02:11:00;23.13;;;12.85;;
4448;SDS011;2237;51.870;6.160;2023-09-12T02:13:26;22.02;;;12.38;;
4448;SDS011;2237;51.870;6.160;2023-09-12T02:15:59;27.77;;;13.70;;
4448;SDS011;2237;51.870;6.160;2023-09-12T02:18:27;26.98;;;13.00;;
4448;SDS011;2237;51.870;6.160;2023-09-12T02:20:53;24.73;;;12.82;;
4448;SDS011;2237;51.870;6.160;2023-09-12T02:23:19;26.77;;;13.35;;
4448;SDS011;2237;51.870;6.160;2023-09-12T02:25:46;24.25;;;13.60;;
4448;SDS011;2237;51.870;6.160;2023-09-12T02:28:12;25.10;;;13.50;;
4448;SDS011;2237;51.870;6.160;2023-09-12T02:30:39;30.08;;;13.23;;
4448;SDS011;2237;51.870;6.160;2023-09-12T02:33:08;23.55;;;12.65;;
4448;SDS011;2237;51.870;6.160;2023-09-12T02:35:35;25.50;;;12.45;;
4448;SDS011;2237;51.870;6.160;2023-09-12T02:38:01;23.45;;;12.45;;
4448;SDS011;2237;51.870;6.160;2023-09-12T02:40:27;22.75;;;12.10;;
4448;SDS011;2237;51.870;6.160;2023-09-12T02:42:54;25.08;;;13.75;;
4448;SDS011;2237;51.870;6.160;2023-09-12T02:45:20;22.00;;;12.70;;
4448;SDS011;2237;51.870;6.160;2023-09-12T02:47:47;22.35;;;12.45;;
4448;SDS011;2237;51.870;6.160;2023-09-12T02:50:13;21.38;;;11.50;;
4448;SDS011;2237;51.870;6.160;2023-09-12T02:52:39;22.98;;;12.15;;
4448;SDS011;2237;51.870;6.160;2023-09-12T02:55:06;22.40;;;11.98;;
4448;SDS011;2237;51.870;6.160;2023-09-12T02:57:32;19.98;;;11.50;;
4448;SDS011;2237;51.870;6.160;2023-09-12T02:59:59;22.73;;;12.75;;
4448;SDS011;2237;51.870;6.160;2023-09-12T03:02:25;22.67;;;12.43;;
4448;SDS011;2237;51.870;6.160;2023-09-12T03:04:54;23.70;;;12.30;;
4448;SDS011;2237;51.870;6.160;2023-09-12T03:07:21;25.65;;;12.70;;
4448;SDS011;2237;51.870;6.160;2023-09-12T03:09:48;22.88;;;12.82;;
4448;SDS011;2237;51.870;6.160;2023-09-12T03:12:15;22.08;;;11.98;;
4448;SDS011;2237;51.870;6.160;2023-09-12T03:14:42;25.70;;;12.95;;
4448;SDS011;2237;51.870;6.160;2023-09-12T03:17:09;21.05;;;12.02;;
4448;SDS011;2237;51.870;6.160;2023-09-12T03:19:35;25.63;;;14.10;;
4448;SDS011;2237;51.870;6.160;2023-09-12T03:22:02;26.75;;;14.55;;
4448;SDS011;2237;51.870;6.160;2023-09-12T03:24:28;26.15;;;14.32;;
4448;SDS011;2237;51.870;6.160;2023-09-12T03:26:55;30.63;;;15.05;;
4448;SDS011;2237;51.870;6.160;2023-09-12T03:29:21;25.70;;;13.65;;
4448;SDS011;2237;51.870;6.160;2023-09-12T03:31:49;27.33;;;14.32;;
4448;SDS011;2237;51.870;6.160;2023-09-12T03:34:15;23.85;;;12.60;;
4448;SDS011;2237;51.870;6.160;2023-09-12T03:36:41;23.95;;;12.55;;
4448;SDS011;2237;51.870;6.160;2023-09-12T03:39:08;23.73;;;12.75;;
4448;SDS011;2237;51.870;6.160;2023-09-12T03:41:35;23.38;;;12.20;;
4448;SDS011;2237;51.870;6.160;2023-09-12T03:44:01;22.20;;;12.13;;
4448;SDS011;2237;51.870;6.160;2023-09-12T03:46:28;23.90;;;12.65;;
4448;SDS011;2237;51.870;6.160;2023-09-12T03:48:55;22.85;;;11.35;;
4448;SDS011;2237;51.870;6.160;2023-09-12T03:51:21;24.20;;;13.05;;
4448;SDS011;2237;51.870;6.160;2023-09-12T03:53:48;21.75;;;11.82;;
4448;SDS011;2237;51.870;6.160;2023-09-12T03:56:16;21.92;;;12.85;;
4448;SDS011;2237;51.870;6.160;2023-09-12T03:58:46;24.95;;;13.73;;
4448;SDS011;2237;51.870;6.160;2023-09-12T04:01:13;24.60;;;13.40;;
4448;SDS011;2237;51.870;6.160;2023-09-12T04:03:39;27.67;;;14.77;;
4448;SDS011;2237;51.870;6.160;2023-09-12T04:06:06;39.33;;;17.80;;
4448;SDS011;2237;51.870;6.160;2023-09-12T04:08:32;32.30;;;16.42;;
4448;SDS011;2237;51.870;6.160;2023-09-12T04:10:59;32.35;;;16.65;;
4448;SDS011;2237;51.870;6.160;2023-09-12T04:13:25;33.72;;;16.30;;
4448;SDS011;2237;51.870;6.160;2023-09-12T04:15:51;31.30;;;16.15;;
4448;SDS011;2237;51.870;6.160;2023-09-12T04:18:18;37.25;;;16.52;;
4448;SDS011;2237;51.870;6.160;2023-09-12T04:20:44;34.08;;;15.95;;
4448;SDS011;2237;51.870;6.160;2023-09-12T04:23:11;37.35;;;16.80;;
4448;SDS011;2237;51.870;6.160;2023-09-12T04:25:37;39.70;;;16.92;;
4448;SDS011;2237;51.870;6.160;2023-09-12T04:28:04;40.85;;;16.92;;
4448;SDS011;2237;51.870;6.160;2023-09-12T04:30:30;35.25;;;16.13;;
4448;SDS011;2237;51.870;6.160;2023-09-12T04:32:57;34.25;;;16.65;;
4448;SDS011;2237;51.870;6.160;2023-09-12T04:35:23;40.78;;;18.35;;
4448;SDS011;2237;51.870;6.160;2023-09-12T04:37:51;51.10;;;21.27;;
4448;SDS011;2237;51.870;6.160;2023-09-12T04:40:17;59.72;;;22.75;;
4448;SDS011;2237;51.870;6.160;2023-09-12T04:42:44;57.10;;;24.92;;
4448;SDS011;2237;51.870;6.160;2023-09-12T04:45:10;52.42;;;22.73;;
4448;SDS011;2237;51.870;6.160;2023-09-12T04:47:37;47.83;;;21.08;;
4448;SDS011;2237;51.870;6.160;2023-09-12T04:50:03;56.63;;;20.52;;
4448;SDS011;2237;51.870;6.160;2023-09-12T04:52:30;43.10;;;19.45;;
4448;SDS011;2237;51.870;6.160;2023-09-12T04:54:59;49.90;;;20.65;;
4448;SDS011;2237;51.870;6.160;2023-09-12T04:57:26;60.90;;;20.70;;
4448;SDS011;2237;51.870;6.160;2023-09-12T04:59:57;71.93;;;21.07;;
4448;SDS011;2237;51.870;6.160;2023-09-12T05:02:32;57.72;;;22.50;;
4448;SDS011;2237;51.870;6.160;2023-09-12T05:04:58;62.58;;;22.40;;
4448;SDS011;2237;51.870;6.160;2023-09-12T05:07:24;64.40;;;21.38;;
4448;SDS011;2237;51.870;6.160;2023-09-12T05:09:51;47.97;;;20.17;;
4448;SDS011;2237;51.870;6.160;2023-09-12T05:12:17;49.15;;;19.50;;
4448;SDS011;2237;51.870;6.160;2023-09-12T05:14:44;50.88;;;21.13;;
4448;SDS011;2237;51.870;6.160;2023-09-12T05:17:10;51.67;;;21.85;;
4448;SDS011;2237;51.870;6.160;2023-09-12T05:19:37;51.90;;;22.27;;
4448;SDS011;2237;51.870;6.160;2023-09-12T05:22:03;53.40;;;22.05;;
4448;SDS011;2237;51.870;6.160;2023-09-12T05:24:29;51.13;;;21.75;;
4448;SDS011;2237;51.870;6.160;2023-09-12T05:26:56;52.22;;;22.17;;
4448;SDS011;2237;51.870;6.160;2023-09-12T05:29:22;50.88;;;21.60;;
4448;SDS011;2237;51.870;6.160;2023-09-12T05:31:49;52.38;;;20.33;;
4448;SDS011;2237;51.870;6.160;2023-09-12T05:34:15;52.15;;;21.15;;
4448;SDS011;2237;51.870;6.160;2023-09-12T05:36:41;48.35;;;20.70;;
4448;SDS011;2237;51.870;6.160;2023-09-12T05:39:08;47.50;;;20.10;;
4448;SDS011;2237;51.870;6.160;2023-09-12T05:41:35;49.88;;;20.25;;
4448;SDS011;2237;51.870;6.160;2023-09-12T05:44:01;49.42;;;20.27;;
4448;SDS011;2237;51.870;6.160;2023-09-12T05:46:28;41.90;;;19.75;;
4448;SDS011;2237;51.870;6.160;2023-09-12T05:48:54;48.20;;;20.05;;
4448;SDS011;2237;51.870;6.160;2023-09-12T05:51:21;44.92;;;19.98;;
4448;SDS011;2237;51.870;6.160;2023-09-12T05:53:47;49.58;;;20.95;;
4448;SDS011;2237;51.870;6.160;2023-09-12T05:56:14;49.20;;;21.42;;
4448;SDS011;2237;51.870;6.160;2023-09-12T05:58:40;54.75;;;21.98;;
4448;SDS011;2237;51.870;6.160;2023-09-12T06:01:09;48.47;;;21.92;;
4448;SDS011;2237;51.870;6.160;2023-09-12T06:03:35;50.40;;;22.55;;
4448;SDS011;2237;51.870;6.160;2023-09-12T06:06:02;56.05;;;23.75;;
4448;SDS011;2237;51.870;6.160;2023-09-12T06:08:29;54.03;;;23.63;;
4448;SDS011;2237;51.870;6.160;2023-09-12T06:10:55;52.50;;;23.17;;
4448;SDS011;2237;51.870;6.160;2023-09-12T06:13:22;45.70;;;21.27;;
4448;SDS011;2237;51.870;6.160;2023-09-12T06:15:49;48.90;;;22.02;;
4448;SDS011;2237;51.870;6.160;2023-09-12T06:18:15;45.08;;;22.20;;
4448;SDS011;2237;51.870;6.160;2023-09-12T06:20:42;48.95;;;22.35;;
4448;SDS011;2237;51.870;6.160;2023-09-12T06:23:08;50.85;;;21.95;;
4448;SDS011;2237;51.870;6.160;2023-09-12T06:25:36;52.05;;;22.02;;
4448;SDS011;2237;51.870;6.160;2023-09-12T06:28:02;45.10;;;21.23;;
4448;SDS011;2237;51.870;6.160;2023-09-12T06:30:29;53.00;;;23.13;;
4448;SDS011;2237;51.870;6.160;2023-09-12T06:32:55;53.17;;;22.95;;
4448;SDS011;2237;51.870;6.160;2023-09-12T06:35:22;46.28;;;22.10;;
4448;SDS011;2237;51.870;6.160;2023-09-12T06:37:48;47.25;;;22.10;;
4448;SDS011;2237;51.870;6.160;2023-09-12T06:40:15;48.10;;;22.52;;
4448;SDS011;2237;51.870;6.160;2023-09-12T06:42:41;53.97;;;22.60;;
4448;SDS011;2237;51.870;6.160;2023-09-12T06:45:08;51.65;;;23.17;;
4448;SDS011;2237;51.870;6.160;2023-09-12T06:47:35;50.63;;;23.45;;
4448;SDS011;2237;51.870;6.160;2023-09-12T06:50:02;51.05;;;22.50;;
4448;SDS011;2237;51.870;6.160;2023-09-12T06:52:30;54.80;;;22.35;;
4448;SDS011;2237;51.870;6.160;2023-09-12T06:54:56;50.17;;;21.70;;
4448;SDS011;2237;51.870;6.160;2023-09-12T06:57:22;50.50;;;22.48;;
4448;SDS011;2237;51.870;6.160;2023-09-12T06:59:49;60.83;;;23.50;;
4448;SDS011;2237;51.870;6.160;2023-09-12T07:02:15;58.47;;;24.52;;
4448;SDS011;2237;51.870;6.160;2023-09-12T07:04:44;62.20;;;25.63;;
4448;SDS011;2237;51.870;6.160;2023-09-12T07:07:10;66.63;;;25.30;;
4448;SDS011;2237;51.870;6.160;2023-09-12T07:09:37;65.22;;;25.75;;
4448;SDS011;2237;51.870;6.160;2023-09-12T07:12:03;67.72;;;25.80;;
4448;SDS011;2237;51.870;6.160;2023-09-12T07:14:32;56.67;;;25.25;;
4448;SDS011;2237;51.870;6.160;2023-09-12T07:16:58;56.38;;;24.23;;
4448;SDS011;2237;51.870;6.160;2023-09-12T07:19:24;54.28;;;24.30;;
4448;SDS011;2237;51.870;6.160;2023-09-12T07:21:51;58.03;;;23.85;;
4448;SDS011;2237;51.870;6.160;2023-09-12T07:24:17;55.95;;;23.90;;
4448;SDS011;2237;51.870;6.160;2023-09-12T07:26:44;50.53;;;22.58;;
4448;SDS011;2237;51.870;6.160;2023-09-12T07:29:12;46.95;;;22.23;;
4448;SDS011;2237;51.870;6.160;2023-09-12T07:31:39;47.85;;;22.83;;
4448;SDS011;2237;51.870;6.160;2023-09-12T07:34:05;49.95;;;23.27;;
4448;SDS011;2237;51.870;6.160;2023-09-12T07:36:34;47.00;;;23.13;;
4448;SDS011;2237;51.870;6.160;2023-09-12T07:39:01;50.25;;;22.80;;
4448;SDS011;2237;51.870;6.160;2023-09-12T07:41:27;50.80;;;22.77;;
4448;SDS011;2237;51.870;6.160;2023-09-12T07:43:53;51.08;;;24.35;;
4448;SDS011;2237;51.870;6.160;2023-09-12T07:46:20;46.78;;;22.58;;
4448;SDS011;2237;51.870;6.160;2023-09-12T07:48:46;49.42;;;23.38;;
4448;SDS011;2237;51.870;6.160;2023-09-12T07:51:16;46.15;;;23.95;;
4448;SDS011;2237;51.870;6.160;2023-09-12T07:53:45;53.05;;;24.75;;
4448;SDS011;2237;51.870;6.160;2023-09-12T07:56:12;48.47;;;23.40;;
4448;SDS011;2237;51.870;6.160;2023-09-12T07:58:38;44.90;;;23.63;;
4448;SDS011;2237;51.870;6.160;2023-09-12T08:01:06;45.35;;;23.92;;
4448;SDS011;2237;51.870;6.160;2023-09-12T08:03:34;46.10;;;21.80;;
4448;SDS011;2237;51.870;6.160;2023-09-12T08:06:01;50.95;;;22.83;;
4448;SDS011;2237;51.870;6.160;2023-09-12T08:08:29;44.92;;;22.90;;
4448;SDS011;2237;51.870;6.160;2023-09-12T08:10:56;45.67;;;22.98;;
4448;SDS011;2237;51.870;6.160;2023-09-12T08:13:26;42.88;;;21.60;;
4448;SDS011;2237;51.870;6.160;2023-09-12T08:18:21;41.75;;;19.42;;
4448;SDS011;2237;51.870;6.160;2023-09-12T08:20:47;47.70;;;22.27;;
4448;SDS011;2237;51.870;6.160;2023-09-12T08:23:14;41.45;;;20.88;;
4448;SDS011;2237;51.870;6.160;2023-09-12T08:25:40;40.97;;;20.70;;
4448;SDS011;2237;51.870;6.160;2023-09-12T08:28:07;43.38;;;21.20;;
4448;SDS011;2237;51.870;6.160;2023-09-12T08:30:33;39.70;;;20.08;;
4448;SDS011;2237;51.870;6.160;2023-09-12T08:33:00;40.63;;;21.52;;
4448;SDS011;2237;51.870;6.160;2023-09-12T08:35:29;39.20;;;20.48;;
4448;SDS011;2237;51.870;6.160;2023-09-12T08:37:55;42.55;;;21.83;;
4448;SDS011;2237;51.870;6.160;2023-09-12T08:40:22;38.17;;;20.45;;
4448;SDS011;2237;51.870;6.160;2023-09-12T08:42:49;42.80;;;20.48;;
4448;SDS011;2237;51.870;6.160;2023-09-12T08:45:18;37.13;;;19.77;;
4448;SDS011;2237;51.870;6.160;2023-09-12T08:47:49;40.20;;;20.70;;
4448;SDS011;2237;51.870;6.160;2023-09-12T08:50:18;38.92;;;20.23;;
4448;SDS011;2237;51.870;6.160;2023-09-12T08:52:47;41.75;;;20.55;;
4448;SDS011;2237;51.870;6.160;2023-09-12T08:55:29;43.25;;;19.50;;
4448;SDS011;2237;51.870;6.160;2023-09-12T08:57:58;40.10;;;19.85;;
4448;SDS011;2237;51.870;6.160;2023-09-12T09:00:25;35.97;;;19.63;;
4448;SDS011;2237;51.870;6.160;2023-09-12T09:02:54;38.28;;;20.35;;
4448;SDS011;2237;51.870;6.160;2023-09-12T09:05:21;41.53;;;21.02;;
4448;SDS011;2237;51.870;6.160;2023-09-12T09:07:50;43.63;;;21.75;;
4448;SDS011;2237;51.870;6.160;2023-09-12T09:10:18;45.67;;;22.55;;
4448;SDS011;2237;51.870;6.160;2023-09-12T09:13:03;42.80;;;21.33;;
4448;SDS011;2237;51.870;6.160;2023-09-12T09:15:29;44.47;;;21.60;;
4448;SDS011;2237;51.870;6.160;2023-09-12T09:17:56;42.47;;;22.63;;
4448;SDS011;2237;51.870;6.160;2023-09-12T09:20:31;45.97;;;23.83;;
4448;SDS011;2237;51.870;6.160;2023-09-12T09:23:05;45.25;;;21.98;;
4448;SDS011;2237;51.870;6.160;2023-09-12T09:25:32;43.25;;;20.10;;
4448;SDS011;2237;51.870;6.160;2023-09-12T09:28:03;47.47;;;22.73;;
4448;SDS011;2237;51.870;6.160;2023-09-12T09:30:43;47.10;;;23.30;;
4448;SDS011;2237;51.870;6.160;2023-09-12T09:33:12;40.77;;;22.57;;
4448;SDS011;2237;51.870;6.160;2023-09-12T09:35:43;38.63;;;20.77;;
4448;SDS011;2237;51.870;6.160;2023-09-12T09:38:12;37.03;;;20.50;;
4448;SDS011;2237;51.870;6.160;2023-09-12T09:40:43;36.50;;;18.95;;
4448;SDS011;2237;51.870;6.160;2023-09-12T09:43:10;34.25;;;17.48;;
4448;SDS011;2237;51.870;6.160;2023-09-12T09:45:44;24.83;;;13.55;;
4448;SDS011;2237;51.870;6.160;2023-09-12T09:48:21;33.13;;;17.83;;
4448;SDS011;2237;51.870;6.160;2023-09-12T09:50:48;32.10;;;17.52;;
4448;SDS011;2237;51.870;6.160;2023-09-12T09:53:15;30.45;;;15.68;;
4448;SDS011;2237;51.870;6.160;2023-09-12T09:55:42;35.08;;;16.95;;
4448;SDS011;2237;51.870;6.160;2023-09-12T09:58:10;28.33;;;16.02;;
4448;SDS011;2237;51.870;6.160;2023-09-12T10:00:42;24.05;;;12.77;;
4448;SDS011;2237;51.870;6.160;2023-09-12T10:03:09;23.58;;;13.00;;
4448;SDS011;2237;51.870;6.160;2023-09-12T10:05:37;22.52;;;12.50;;
4448;SDS011;2237;51.870;6.160;2023-09-12T10:08:06;20.67;;;11.93;;
4448;SDS011;2237;51.870;6.160;2023-09-12T10:10:34;18.08;;;10.13;;
4448;SDS011;2237;51.870;6.160;2023-09-12T10:13:03;22.60;;;11.30;;
4448;SDS011;2237;51.870;6.160;2023-09-12T10:15:30;20.10;;;11.43;;
4448;SDS011;2237;51.870;6.160;2023-09-12T10:17:57;16.23;;;9.65;;
4448;SDS011;2237;51.870;6.160;2023-09-12T10:20:33;18.33;;;9.63;;
4448;SDS011;2237;51.870;6.160;2023-09-12T10:23:05;14.88;;;8.77;;
4448;SDS011;2237;51.870;6.160;2023-09-12T10:25:35;13.57;;;8.40;;
4448;SDS011;2237;51.870;6.160;2023-09-12T10:28:05;13.82;;;8.05;;
4448;SDS011;2237;51.870;6.160;2023-09-12T10:30:33;12.77;;;8.20;;
4448;SDS011;2237;51.870;6.160;2023-09-12T10:33:02;14.85;;;8.50;;
4448;SDS011;2237;51.870;6.160;2023-09-12T10:35:30;16.60;;;8.30;;
4448;SDS011;2237;51.870;6.160;2023-09-12T10:37:59;16.45;;;9.65;;
4448;SDS011;2237;51.870;6.160;2023-09-12T10:40:31;16.42;;;9.95;;
4448;SDS011;2237;51.870;6.160;2023-09-12T10:43:08;18.15;;;9.18;;
4448;SDS011;2237;51.870;6.160;2023-09-12T10:45:35;13.50;;;8.07;;
4448;SDS011;2237;51.870;6.160;2023-09-12T10:48:03;13.73;;;8.13;;
4448;SDS011;2237;51.870;6.160;2023-09-12T10:50:30;10.02;;;5.72;;
4448;SDS011;2237;51.870;6.160;2023-09-12T10:53:07;14.30;;;7.57;;
4448;SDS011;2237;51.870;6.160;2023-09-12T10:55:37;13.32;;;6.85;;
4448;SDS011;2237;51.870;6.160;2023-09-12T10:58:05;11.15;;;6.38;;
4448;SDS011;2237;51.870;6.160;2023-09-12T11:00:34;11.43;;;6.50;;
4448;SDS011;2237;51.870;6.160;2023-09-12T11:05:55;11.68;;;6.25;;
4448;SDS011;2237;51.870;6.160;2023-09-12T11:08:22;12.38;;;7.15;;
4448;SDS011;2237;51.870;6.160;2023-09-12T11:14:07;11.85;;;7.68;;
4448;SDS011;2237;51.870;6.160;2023-09-12T11:16:33;16.85;;;8.02;;
4448;SDS011;2237;51.870;6.160;2023-09-12T11:19:17;12.20;;;7.13;;
4448;SDS011;2237;51.870;6.160;2023-09-12T11:21:46;11.45;;;7.32;;
4448;SDS011;2237;51.870;6.160;2023-09-12T11:24:14;13.13;;;7.45;;
4448;SDS011;2237;51.870;6.160;2023-09-12T11:27:00;12.82;;;7.70;;
4448;SDS011;2237;51.870;6.160;2023-09-12T11:29:35;11.82;;;7.13;;
4448;SDS011;2237;51.870;6.160;2023-09-12T11:32:04;10.23;;;6.82;;
4448;SDS011;2237;51.870;6.160;2023-09-12T11:34:38;10.93;;;6.38;;
4448;SDS011;2237;51.870;6.160;2023-09-12T11:37:07;12.90;;;6.30;;
4448;SDS011;2237;51.870;6.160;2023-09-12T11:39:35;10.68;;;6.97;;
4448;SDS011;2237;51.870;6.160;2023-09-12T11:42:03;11.70;;;6.63;;
4448;SDS011;2237;51.870;6.160;2023-09-12T11:44:31;12.90;;;8.38;;
4448;SDS011;2237;51.870;6.160;2023-09-12T11:47:01;14.52;;;7.45;;
4448;SDS011;2237;51.870;6.160;2023-09-12T11:49:36;11.07;;;7.30;;
4448;SDS011;2237;51.870;6.160;2023-09-12T11:52:10;12.48;;;7.32;;
4448;SDS011;2237;51.870;6.160;2023-09-12T11:54:40;12.85;;;7.50;;
4448;SDS011;2237;51.870;6.160;2023-09-12T11:57:08;12.50;;;7.72;;
4448;SDS011;2237;51.870;6.160;2023-09-12T11:59:39;12.05;;;7.30;;
4448;SDS011;2237;51.870;6.160;2023-09-12T12:02:07;10.68;;;7.18;;
4448;SDS011;2237;51.870;6.160;2023-09-12T12:04:35;12.68;;;7.60;;
4448;SDS011;2237;51.870;6.160;2023-09-12T12:07:02;13.05;;;7.05;;
4448;SDS011;2237;51.870;6.160;2023-09-12T12:09:33;13.43;;;7.78;;
4448;SDS011;2237;51.870;6.160;2023-09-12T12:12:04;13.90;;;8.00;;
4448;SDS011;2237;51.870;6.160;2023-09-12T12:14:40;11.23;;;6.45;;
4448;SDS011;2237;51.870;6.160;2023-09-12T12:17:08;11.50;;;5.95;;
4448;SDS011;2237;51.870;6.160;2023-09-12T12:19:36;10.52;;;5.68;;
4448;SDS011;2237;51.870;6.160;2023-09-12T12:22:04;11.40;;;5.88;;
4448;SDS011;2237;51.870;6.160;2023-09-12T12:24:41;10.23;;;5.75;;
4448;SDS011;2237;51.870;6.160;2023-09-12T12:27:10;8.35;;;5.32;;
4448;SDS011;2237;51.870;6.160;2023-09-12T12:29:37;10.90;;;6.60;;
4448;SDS011;2237;51.870;6.160;2023-09-12T12:32:05;10.57;;;6.97;;
4448;SDS011;2237;51.870;6.160;2023-09-12T12:34:35;9.82;;;6.57;;
4448;SDS011;2237;51.870;6.160;2023-09-12T12:37:27;9.55;;;5.60;;
4448;SDS011;2237;51.870;6.160;2023-09-12T12:39:57;9.45;;;5.07;;
4448;SDS011;2237;51.870;6.160;2023-09-12T12:42:25;8.05;;;4.60;;
4448;SDS011;2237;51.870;6.160;2023-09-12T12:45:15;8.10;;;4.50;;
4448;SDS011;2237;51.870;6.160;2023-09-12T12:47:43;9.07;;;4.78;;
4448;SDS011;2237;51.870;6.160;2023-09-12T12:50:11;7.63;;;4.75;;
4448;SDS011;2237;51.870;6.160;2023-09-12T12:52:38;10.00;;;5.95;;
4448;SDS011;2237;51.870;6.160;2023-09-12T12:55:05;9.80;;;6.15;;
4448;SDS011;2237;51.870;6.160;2023-09-12T12:57:36;13.30;;;6.82;;
4448;SDS011;2237;51.870;6.160;2023-09-12T13:00:08;9.25;;;6.45;;
4448;SDS011;2237;51.870;6.160;2023-09-12T13:02:37;10.18;;;6.38;;
4448;SDS011;2237;51.870;6.160;2023-09-12T13:05:06;11.10;;;6.57;;
4448;SDS011;2237;51.870;6.160;2023-09-12T13:07:45;7.88;;;5.25;;
4448;SDS011;2237;51.870;6.160;2023-09-12T13:10:11;9.68;;;6.10;;
4448;SDS011;2237;51.870;6.160;2023-09-12T13:12:38;9.77;;;6.22;;
4448;SDS011;2237;51.870;6.160;2023-09-12T13:15:04;10.20;;;6.30;;
4448;SDS011;2237;51.870;6.160;2023-09-12T13:17:32;8.10;;;5.25;;
4448;SDS011;2237;51.870;6.160;2023-09-12T13:19:59;11.13;;;5.78;;
4448;SDS011;2237;51.870;6.160;2023-09-12T13:22:25;8.40;;;5.75;;
4448;SDS011;2237;51.870;6.160;2023-09-12T13:24:51;8.55;;;5.93;;
4448;SDS011;2237;51.870;6.160;2023-09-12T13:27:18;8.98;;;3.92;;
4448;SDS011;2237;51.870;6.160;2023-09-12T13:29:44;8.60;;;5.28;;
4448;SDS011;2237;51.870;6.160;2023-09-12T13:32:11;6.55;;;4.20;;
4448;SDS011;2237;51.870;6.160;2023-09-12T13:34:38;5.38;;;3.80;;
4448;SDS011;2237;51.870;6.160;2023-09-12T13:37:05;5.45;;;3.95;;
4448;SDS011;2237;51.870;6.160;2023-09-12T13:39:38;7.13;;;4.00;;
4448;SDS011;2237;51.870;6.160;2023-09-12T13:42:05;7.07;;;3.80;;
4448;SDS011;2237;51.870;6.160;2023-09-12T13:44:34;6.13;;;3.80;;
4448;SDS011;2237;51.870;6.160;2023-09-12T13:47:00;5.45;;;4.18;;
4448;SDS011;2237;51.870;6.160;2023-09-12T13:49:27;6.55;;;4.50;;
4448;SDS011;2237;51.870;6.160;2023-09-12T13:51:53;11.55;;;5.43;;
4448;SDS011;2237;51.870;6.160;2023-09-12T13:54:21;5.25;;;3.95;;
4448;SDS011;2237;51.870;6.160;2023-09-12T13:56:47;7.90;;;4.57;;
4448;SDS011;2237;51.870;6.160;2023-09-12T13:59:14;5.22;;;4.40;;
4448;SDS011;2237;51.870;6.160;2023-09-12T14:01:42;7.97;;;3.95;;
4448;SDS011;2237;51.870;6.160;2023-09-12T14:04:08;5.97;;;4.40;;
4448;SDS011;2237;51.870;6.160;2023-09-12T14:06:35;7.63;;;4.95;;
4448;SDS011;2237;51.870;6.160;2023-09-12T14:09:02;7.63;;;4.82;;
4448;SDS011;2237;51.870;6.160;2023-09-12T14:11:29;5.55;;;4.32;;
4448;SDS011;2237;51.870;6.160;2023-09-12T14:14:02;6.03;;;4.00;;
4448;SDS011;2237;51.870;6.160;2023-09-12T14:16:41;5.03;;;3.53;;
4448;SDS011;2237;51.870;6.160;2023-09-12T14:19:13;6.57;;;3.55;;
4448;SDS011;2237;51.870;6.160;2023-09-12T14:21:41;5.15;;;4.18;;
4448;SDS011;2237;51.870;6.160;2023-09-12T14:24:11;6.00;;;3.88;;
4448;SDS011;2237;51.870;6.160;2023-09-12T14:26:38;4.95;;;3.78;;
4448;SDS011;2237;51.870;6.160;2023-09-12T14:29:07;4.70;;;3.75;;
4448;SDS011;2237;51.870;6.160;2023-09-12T14:31:34;4.38;;;3.20;;
4448;SDS011;2237;51.870;6.160;2023-09-12T14:34:03;4.10;;;3.65;;
4448;SDS011;2237;51.870;6.160;2023-09-12T14:36:31;5.15;;;3.63;;
4448;SDS011;2237;51.870;6.160;2023-09-12T14:38:57;5.85;;;3.58;;
4448;SDS011;2237;51.870;6.160;2023-09-12T14:41:24;4.53;;;3.75;;
4448;SDS011;2237;51.870;6.160;2023-09-12T14:43:50;5.38;;;3.70;;
4448;SDS011;2237;51.870;6.160;2023-09-12T14:46:17;5.70;;;3.90;;
4448;SDS011;2237;51.870;6.160;2023-09-12T14:48:44;5.40;;;3.88;;
4448;SDS011;2237;51.870;6.160;2023-09-12T14:51:23;5.20;;;3.78;;
4448;SDS011;2237;51.870;6.160;2023-09-12T14:53:59;3.78;;;3.17;;
4448;SDS011;2237;51.870;6.160;2023-09-12T14:56:25;3.90;;;3.30;;
4448;SDS011;2237;51.870;6.160;2023-09-12T14:58:52;4.20;;;2.67;;
4448;SDS011;2237;51.870;6.160;2023-09-12T15:01:18;5.35;;;3.47;;
4448;SDS011;2237;51.870;6.160;2023-09-12T15:03:45;3.83;;;2.90;;
4448;SDS011;2237;51.870;6.160;2023-09-12T15:06:13;4.20;;;3.22;;
4448;SDS011;2237;51.870;6.160;2023-09-12T15:08:39;4.40;;;3.45;;
4448;SDS011;2237;51.870;6.160;2023-09-12T15:11:06;5.20;;;3.33;;
4448;SDS011;2237;51.870;6.160;2023-09-12T15:13:32;4.13;;;2.80;;